Vallecitos, NM (87581)

7:21 AM MDT on March 29, 2017 (GMT -0600)
El Ojito | | Change Station
Active Advisory: Winter Weather Advisory

Elev 7359 ft 36.38 °N, 106.05 °W | Updated 6 minutes ago

Mostly Cloudy
Mostly Cloudy
36.8 °F
Feels Like 37 °F
N
0.0
Wind Variable Wind from NNE
Gusts 6.0 mph

Today
High -- | Low -- °F
--% Chance of Precip.
Yesterday
High -- | Low -- °F
Precip. -- in
Pressure 29.96 in
Visibility 10.0 miles
Clouds Scattered Clouds 3700 ft
Scattered Clouds 4900 ft
Mostly Cloudy 5500 ft
Windchill 37 °F
Dew Point 31 °F
Humidity 80%
Rainfall 0.00 in
Snow Depth Not available.
6:54 AM 7:24 PM
Waxing Crescent, 3% visible
METAR KLAM 291315Z AUTO 36009G14KT 320V030 10SM SCT037 SCT049 BKN055 02/02 A2996 RMK AO2 T00200017
Pressure 29.96 in
Visibility 10.0 miles
Clouds Scattered Clouds 3700 ft
Scattered Clouds 4900 ft
Mostly Cloudy 5500 ft
Windchill 37 °F
Dew Point 31 °F
Humidity 80%
Rainfall 0.00 in
Snow Depth Not available.
6:54 AM 7:24 PM
Waxing Crescent, 3% visible
METAR KLAM 291315Z AUTO 36009G14KT 320V030 10SM SCT037 SCT049 BKN055 02/02 A2996 RMK AO2 T00200017

Get Your Daily Forecast Email!

Thanks for signing up!

Be on the lookout for a verification email in your inbox.

You'll start receiving severe weather alerts in your inbox..

×

10-Day Weather Forecast

Almanac

Astronomy

Mar. 29, 2017 Rise Set
Actual Time
Civil Twilight
Nautical Twilight
Astronomical Twilight
Moon
Length of Visible Light
Length of Day
Tomorrow will be .
, % of the Moon is Illuminated

Today's Extremes

State Highs State Lows

Community

WunderPhotos

Upload Photos

1,962,540 photos uploaded!

WunderBlog® & News

Nearby

Air Quality

  Air Quality AQ Index Pollutant
Not available.

Snow Depth

Station Depth Elevation

Earthquake Activity

City Distance Mag. Time & Date
Minimum magnitude displayed is 2.5.

Earthquake Activity

City Distance Mag. Time & Date
Minimum magnitude displayed is 2.5.

Coastal Water Temperatures

Place Temperature

Stations

Nearby Weather Stations

Station Location Temp. Windchill Dew Point Humidity Wind Precip. Elev Updated Type
                   

Watches & Warnings

Winter Weather Advisory
Issued: 3:22 AM MDT Mar. 29, 2017 – National Weather Service

... Winter Weather Advisory remains in effect until noon MDT
today...

* snow accumulations... generally 4 to 6 inches with amounts up
to 12 inches possible across the higher peaks.

* Timing... snow will continue through this morning before
gradually diminishing around mid day or early afternoon.

* Winds... northerly winds with sustained speeds of 10 to 20 mph
with occasional gusts near 30 mph.

* Snow levels... lowering to near 7000 feet this morning.

* Local impacts... snow packed and icy roads along with limited
visibility in snow will create hazardous travel conditions.

Precautionary/preparedness actions...

A Winter Weather Advisory for snow means that periods of snow
will cause primarily travel difficulties. Be prepared for snow
covered roads and limited visibilities.